createdAt,value
2022-12-16T00:00:21.446Z,1.56
2022-12-16T00:01:20.339Z,1.55
2022-12-16T00:02:19.998Z,1.55
2022-12-16T00:03:21.491Z,1.37
2022-12-16T00:04:21.465Z,1.22
2022-12-16T00:05:19.978Z,1.23
2022-12-16T00:06:21.407Z,1.30
2022-12-16T00:07:20.278Z,1.37
2022-12-16T00:08:19.884Z,1.51
2022-12-16T00:09:21.444Z,1.37
2022-12-16T00:10:20.095Z,1.41
2022-12-16T00:11:20.684Z,1.47
2022-12-16T00:12:20.655Z,1.45
2022-12-16T00:13:19.836Z,1.49
2022-12-16T00:14:21.904Z,1.44
2022-12-16T00:15:20.578Z,1.48
2022-12-16T00:16:20.665Z,1.45
2022-12-16T00:17:19.855Z,1.18
2022-12-16T00:18:21.470Z,1.08
2022-12-16T00:19:20.325Z,1.10
2022-12-16T00:20:20.415Z,1.13
2022-12-16T00:21:20.577Z,1.19
2022-12-16T00:22:19.717Z,1.12
2022-12-16T00:23:20.754Z,1.12
2022-12-16T00:24:21.354Z,1.27
2022-12-16T00:25:20.546Z,1.23
2022-12-16T00:26:19.676Z,1.26
2022-12-16T00:27:21.274Z,1.26
2022-12-16T00:28:20.110Z,1.27
2022-12-16T00:29:20.525Z,1.20
2022-12-16T00:30:20.405Z,1.20
2022-12-16T00:31:20.452Z,1.20
2022-12-16T00:32:19.633Z,1.30
2022-12-16T00:33:20.321Z,1.22
2022-12-16T00:34:19.595Z,1.12
2022-12-16T00:35:20.372Z,1.13
2022-12-16T00:36:21.135Z,1.28
2022-12-16T00:37:19.593Z,1.31
2022-12-16T00:38:20.844Z,1.19
2022-12-16T00:39:19.746Z,1.20
2022-12-16T00:40:19.535Z,1.45
2022-12-16T00:41:21.079Z,1.40
2022-12-16T00:42:20.364Z,1.47
2022-12-16T00:43:20.512Z,1.51
2022-12-16T00:44:19.495Z,1.47
2022-12-16T00:45:21.038Z,1.34
2022-12-16T00:46:20.504Z,1.33
2022-12-16T00:47:19.575Z,1.36
2022-12-16T00:48:20.886Z,1.18
2022-12-16T00:49:19.774Z,1.09
2022-12-16T00:50:19.438Z,1.20
2022-12-16T00:51:20.935Z,1.26
2022-12-16T00:52:20.165Z,1.30
2022-12-16T00:53:19.496Z,1.26
2022-12-16T00:54:20.927Z,1.28
2022-12-16T00:55:19.776Z,1.34
2022-12-16T00:56:20.333Z,1.30
2022-12-16T00:57:20.244Z,1.28
2022-12-16T00:58:20.205Z,1.30
2022-12-16T00:59:20.363Z,1.23
2022-12-16T01:00:20.315Z,1.16
2022-12-16T01:01:20.359Z,1.18
2022-12-16T01:02:19.482Z,1.19
2022-12-16T01:03:21.955Z,1.23
2022-12-16T01:04:20.815Z,1.20
2022-12-16T01:05:19.974Z,1.19
2022-12-16T01:06:19.296Z,1.12
2022-12-16T01:07:20.885Z,1.05
2022-12-16T01:08:20.093Z,1.16
2022-12-16T01:09:19.286Z,1.16
2022-12-16T01:10:20.746Z,1.26
2022-12-16T01:11:19.615Z,1.40
2022-12-16T01:12:19.245Z,1.45
2022-12-16T01:13:20.025Z,1.49
2022-12-16T01:14:20.078Z,1.44
2022-12-16T01:15:19.997Z,1.47
2022-12-16T01:16:19.349Z,1.48
2022-12-16T01:17:21.246Z,1.38
2022-12-16T01:18:20.255Z,1.36
2022-12-16T01:19:19.176Z,1.28
2022-12-16T01:20:20.475Z,1.34
2022-12-16T01:21:19.405Z,1.33
2022-12-16T01:22:19.184Z,1.31
2022-12-16T01:23:20.934Z,1.47
2022-12-16T01:24:19.777Z,1.48
2022-12-16T01:25:19.118Z,1.44
2022-12-16T01:26:20.454Z,1.45
2022-12-16T01:27:19.425Z,1.31
2022-12-16T01:28:19.068Z,1.23
2022-12-16T01:29:20.325Z,1.23
2022-12-16T01:30:19.288Z,1.30
2022-12-16T01:31:19.910Z,1.36
2022-12-16T01:32:19.024Z,1.31
2022-12-16T01:33:20.325Z,1.19
2022-12-16T01:34:19.213Z,1.26
2022-12-16T01:35:51.417Z,1.36
2022-12-16T01:36:20.375Z,1.31
2022-12-16T01:37:19.005Z,1.34
2022-12-16T01:38:20.415Z,1.37
2022-12-16T01:39:19.389Z,1.37
2022-12-16T01:40:18.969Z,1.27
2022-12-16T01:41:19.655Z,1.26
2022-12-16T01:42:18.990Z,1.45
2022-12-16T01:43:20.307Z,1.47
2022-12-16T01:44:19.278Z,1.36
2022-12-16T01:45:20.415Z,1.31
2022-12-16T01:46:18.967Z,1.31
2022-12-16T01:47:19.686Z,1.33
2022-12-16T01:48:18.915Z,1.41
2022-12-16T01:49:19.662Z,1.56
2022-12-16T01:50:18.865Z,1.55
2022-12-16T01:51:18.855Z,1.58
2022-12-16T01:52:19.505Z,1.67
2022-12-16T01:53:19.649Z,1.73
2022-12-16T01:54:18.866Z,1.55
2022-12-16T01:55:19.692Z,1.49
2022-12-16T01:56:19.607Z,1.47
2022-12-16T01:57:19.698Z,1.44
2022-12-16T01:58:19.464Z,1.63
2022-12-16T01:59:18.777Z,1.58
2022-12-16T02:00:20.766Z,1.52
2022-12-16T02:01:19.801Z,1.54
2022-12-16T02:02:19.568Z,1.36
2022-12-16T02:03:19.724Z,1.45
2022-12-16T02:04:19.455Z,1.44
2022-12-16T02:05:19.326Z,1.41
2022-12-16T02:06:18.676Z,1.51
2022-12-16T02:07:18.745Z,1.61
2022-12-16T02:08:18.695Z,1.67
2022-12-16T02:09:19.318Z,1.70
2022-12-16T02:10:19.445Z,1.61
2022-12-16T02:11:18.677Z,1.52
2022-12-16T02:12:19.895Z,1.49
2022-12-16T02:13:19.044Z,1.51
2022-12-16T02:14:19.385Z,1.55
2022-12-16T02:15:18.619Z,1.58
2022-12-16T02:16:19.464Z,1.63
2022-12-16T02:17:19.518Z,1.55
2022-12-16T02:18:20.112Z,1.55
2022-12-16T02:19:20.048Z,1.45
2022-12-16T02:20:18.596Z,1.49
2022-12-16T02:21:19.894Z,1.44
2022-12-16T02:22:18.917Z,1.49
2022-12-16T02:23:18.536Z,1.45
2022-12-16T02:24:19.147Z,1.58
2022-12-16T02:25:19.337Z,1.69
2022-12-16T02:26:18.536Z,1.73
2022-12-16T02:27:19.496Z,1.65
2022-12-16T02:28:19.387Z,1.55
2022-12-16T02:29:18.477Z,1.56
2022-12-16T02:30:19.089Z,1.85
2022-12-16T02:31:18.540Z,1.81
2022-12-16T02:32:19.925Z,1.79
2022-12-16T02:33:18.806Z,1.70
2022-12-16T02:34:18.409Z,1.72
2022-12-16T02:35:20.017Z,1.77
2022-12-16T02:36:18.876Z,1.74
2022-12-16T02:37:18.411Z,1.67
2022-12-16T02:38:19.857Z,1.67
2022-12-16T02:39:19.645Z,1.61
2022-12-16T02:40:18.336Z,1.55
2022-12-16T02:41:19.955Z,1.70
2022-12-16T02:42:18.936Z,1.72
2022-12-16T02:43:18.983Z,1.66
2022-12-16T02:44:18.295Z,1.69
2022-12-16T02:45:20.559Z,1.72
2022-12-16T02:46:19.221Z,1.67
2022-12-16T02:47:18.301Z,1.70
2022-12-16T02:48:19.857Z,1.67
2022-12-16T02:49:18.756Z,1.61
2022-12-16T02:50:18.237Z,1.51
2022-12-16T02:51:20.084Z,1.49
2022-12-16T02:52:19.256Z,1.51
2022-12-16T02:53:18.238Z,1.45
2022-12-16T02:54:19.917Z,1.51
2022-12-16T02:55:18.735Z,1.55
2022-12-16T02:56:18.821Z,1.52
2022-12-16T02:57:18.986Z,1.58
2022-12-16T02:58:18.204Z,1.67
2022-12-16T02:59:19.137Z,1.66
2022-12-16T03:00:18.145Z,1.54
2022-12-16T03:01:19.420Z,1.72
2022-12-16T03:02:18.648Z,1.70
2022-12-16T03:03:19.042Z,1.65
2022-12-16T03:04:18.135Z,1.67
2022-12-16T03:05:19.034Z,1.66
2022-12-16T03:06:18.076Z,1.59
2022-12-16T03:07:19.365Z,1.66
2022-12-16T03:08:18.555Z,1.70
2022-12-16T03:09:18.078Z,1.69
2022-12-16T03:10:19.511Z,1.63
2022-12-16T03:11:18.534Z,1.81
2022-12-16T03:12:18.824Z,1.72
2022-12-16T03:13:18.039Z,1.65
2022-12-16T03:14:19.366Z,1.59
2022-12-16T03:15:18.545Z,1.61
2022-12-16T03:16:19.018Z,1.63
2022-12-16T03:17:18.836Z,1.65
2022-12-16T03:18:19.915Z,1.55
2022-12-16T03:19:17.979Z,1.59
2022-12-16T03:20:17.946Z,1.61
2022-12-16T03:21:18.665Z,1.77
2022-12-16T03:22:17.916Z,1.81
2022-12-16T03:23:19.385Z,1.81
2022-12-16T03:24:18.224Z,1.91
2022-12-16T03:25:17.921Z,1.95
2022-12-16T03:26:18.575Z,1.84
2022-12-16T03:27:18.680Z,1.70
2022-12-16T03:28:18.465Z,1.66
2022-12-16T03:29:19.385Z,1.65
2022-12-16T03:30:18.500Z,1.61
2022-12-16T03:31:18.918Z,1.72
2022-12-16T03:32:18.705Z,1.70
2022-12-16T03:33:18.755Z,1.66
2022-12-16T03:34:18.017Z,1.67
2022-12-16T03:35:17.814Z,1.77
2022-12-16T03:36:17.773Z,1.77
2022-12-16T03:37:18.614Z,1.92
2022-12-16T03:38:18.626Z,1.88
2022-12-16T03:39:19.307Z,1.79
2022-12-16T03:40:17.776Z,1.77
2022-12-16T03:41:18.370Z,1.83
2022-12-16T03:42:17.726Z,1.98
2022-12-16T03:43:19.385Z,2.10
2022-12-16T03:44:18.296Z,2.04
2022-12-16T03:45:17.726Z,2.02
2022-12-16T03:46:17.920Z,1.88
2022-12-16T03:47:23.310Z,1.90
2022-12-16T03:48:17.654Z,1.84
2022-12-16T03:49:18.009Z,1.91
2022-12-16T03:50:18.844Z,1.90
2022-12-16T03:51:18.056Z,1.90
2022-12-16T03:52:18.537Z,1.98
2022-12-16T03:53:17.636Z,2.14
2022-12-16T03:54:19.416Z,2.16
2022-12-16T03:55:18.355Z,2.21
2022-12-16T03:56:18.497Z,2.21
2022-12-16T03:57:17.597Z,2.21
2022-12-16T03:58:18.268Z,2.20
2022-12-16T03:59:17.576Z,2.20
2022-12-16T04:00:19.316Z,2.10
2022-12-16T04:01:18.688Z,2.14
2022-12-16T04:02:17.728Z,2.17
2022-12-16T04:03:18.501Z,2.14
2022-12-16T04:04:17.565Z,1.92
2022-12-16T04:05:19.030Z,1.81
2022-12-16T04:06:18.015Z,1.83
2022-12-16T04:07:17.466Z,1.94
2022-12-16T04:08:18.526Z,2.07
2022-12-16T04:09:17.474Z,2.20
2022-12-16T04:10:18.189Z,2.10
2022-12-16T04:11:17.658Z,2.10
2022-12-16T04:12:18.860Z,2.07
2022-12-16T04:13:18.093Z,2.07
2022-12-16T04:14:18.385Z,2.13
2022-12-16T04:15:18.395Z,2.13
2022-12-16T04:16:17.432Z,2.10
2022-12-16T04:17:18.962Z,2.20
2022-12-16T04:18:18.224Z,2.27
2022-12-16T04:19:17.413Z,2.27
2022-12-16T04:20:18.936Z,2.34
2022-12-16T04:21:17.687Z,2.49
2022-12-16T04:22:17.315Z,2.42
2022-12-16T04:23:19.014Z,2.40
2022-12-16T04:24:18.265Z,2.35
2022-12-16T04:25:17.375Z,2.35
2022-12-16T04:26:18.855Z,2.37
2022-12-16T04:27:17.804Z,2.39
2022-12-16T04:28:17.255Z,2.46
2022-12-16T04:29:19.168Z,2.55
2022-12-16T04:30:18.233Z,2.63
2022-12-16T04:31:17.396Z,2.61
2022-12-16T04:32:18.965Z,2.55
2022-12-16T04:33:17.824Z,2.45
2022-12-16T04:34:19.914Z,2.49
2022-12-16T04:35:19.006Z,2.49
2022-12-16T04:36:17.194Z,2.52
2022-12-16T04:37:18.374Z,2.55
2022-12-16T04:38:17.786Z,2.68
2022-12-16T04:39:18.166Z,2.70
2022-12-16T04:40:17.216Z,2.55
2022-12-16T04:41:18.385Z,2.58
2022-12-16T04:42:17.216Z,2.63
2022-12-16T04:43:17.114Z,2.68
2022-12-16T04:44:18.934Z,2.70
2022-12-16T04:45:19.201Z,2.68
2022-12-16T04:46:17.178Z,2.68
2022-12-16T04:47:17.055Z,2.67
2022-12-16T04:48:18.633Z,2.63
2022-12-16T04:49:17.065Z,2.76
2022-12-16T04:50:17.065Z,2.79
2022-12-16T04:51:17.765Z,2.64
2022-12-16T04:52:17.034Z,2.50
2022-12-16T04:53:18.355Z,2.46
2022-12-16T04:54:17.735Z,2.47
2022-12-16T04:55:17.925Z,2.61
2022-12-16T04:56:17.047Z,2.83
2022-12-16T04:57:18.025Z,2.85
2022-12-16T04:58:17.805Z,2.86
2022-12-16T04:59:16.936Z,2.73
2022-12-16T05:00:16.954Z,2.64
2022-12-16T05:01:19.109Z,2.65
2022-12-16T05:02:18.457Z,2.67
2022-12-16T05:03:17.745Z,2.57
2022-12-16T05:04:16.916Z,2.49
2022-12-16T05:05:17.730Z,2.45
2022-12-16T05:06:16.894Z,2.67
2022-12-16T05:07:18.394Z,2.68
2022-12-16T05:08:17.394Z,2.61
2022-12-16T05:09:16.844Z,2.45
2022-12-16T05:10:18.626Z,2.43
2022-12-16T05:11:18.485Z,2.46
2022-12-16T05:12:16.844Z,2.43
2022-12-16T05:13:18.377Z,2.46
2022-12-16T05:14:17.724Z,2.45
2022-12-16T05:15:17.805Z,2.49
2022-12-16T05:16:16.864Z,2.45
2022-12-16T05:17:18.887Z,2.47
2022-12-16T05:18:18.176Z,2.42
2022-12-16T05:19:17.585Z,2.43
2022-12-16T05:20:18.314Z,2.40
2022-12-16T05:21:16.778Z,2.42
2022-12-16T05:22:18.851Z,2.40
2022-12-16T05:23:17.795Z,2.40
2022-12-16T05:24:17.596Z,2.34
2022-12-16T05:25:17.376Z,2.39
2022-12-16T05:26:17.515Z,2.49
2022-12-16T05:27:16.706Z,2.57
2022-12-16T05:28:17.916Z,2.58
2022-12-16T05:29:16.725Z,2.57
2022-12-16T05:30:16.660Z,2.55
2022-12-16T05:31:17.934Z,2.46
2022-12-16T05:32:16.995Z,2.40
2022-12-16T05:33:16.597Z,2.37
2022-12-16T05:34:17.925Z,2.40
2022-12-16T05:35:16.798Z,2.42
2022-12-16T05:36:16.597Z,2.47
2022-12-16T05:37:17.886Z,2.46
2022-12-16T05:38:16.643Z,2.43
2022-12-16T05:39:16.533Z,2.46
2022-12-16T05:40:17.948Z,2.46
2022-12-16T05:41:16.835Z,2.50
2022-12-16T05:42:16.563Z,2.49
2022-12-16T05:43:17.169Z,2.49
2022-12-16T05:44:16.525Z,2.42
2022-12-16T05:45:17.325Z,2.52
2022-12-16T05:46:17.688Z,2.65
2022-12-16T05:47:16.512Z,2.68
2022-12-16T05:48:17.245Z,2.64
2022-12-16T05:49:16.498Z,2.67
2022-12-16T05:50:17.884Z,2.70
2022-12-16T05:51:17.099Z,2.78
2022-12-16T05:52:16.434Z,2.67
2022-12-16T05:53:17.066Z,2.60
2022-12-16T05:54:17.396Z,2.57
2022-12-16T05:55:17.386Z,2.50
2022-12-16T05:56:16.396Z,2.57
2022-12-16T05:57:18.108Z,2.57
2022-12-16T05:58:17.964Z,2.61
2022-12-16T05:59:17.165Z,2.67
2022-12-16T06:00:16.415Z,2.70
2022-12-16T06:01:16.315Z,2.73
2022-12-16T06:02:18.255Z,2.74
2022-12-16T06:03:16.454Z,2.76
2022-12-16T06:04:17.916Z,2.74
2022-12-16T06:05:17.084Z,2.63
2022-12-16T06:06:17.015Z,2.70
2022-12-16T06:07:17.045Z,2.67
2022-12-16T06:08:16.907Z,2.64
2022-12-16T06:09:17.694Z,2.65
2022-12-16T06:10:17.376Z,2.67
2022-12-16T06:11:18.234Z,2.73
2022-12-16T06:12:17.766Z,2.73
2022-12-16T06:13:17.025Z,2.78
2022-12-16T06:14:17.476Z,2.86
2022-12-16T06:15:17.155Z,2.96
2022-12-16T06:16:16.992Z,2.97
2022-12-16T06:17:17.015Z,2.85
2022-12-16T06:18:16.906Z,2.88
2022-12-16T06:19:17.036Z,2.83
2022-12-16T06:20:17.026Z,2.85
2022-12-16T06:21:16.915Z,2.89
2022-12-16T06:22:16.936Z,3.01
2022-12-16T06:23:18.813Z,3.06
2022-12-16T06:24:17.115Z,3.04
2022-12-16T06:25:16.765Z,2.96
2022-12-16T06:26:17.075Z,2.83
2022-12-16T06:27:16.884Z,2.81
2022-12-16T06:28:17.927Z,2.81
2022-12-16T06:29:16.076Z,2.73
2022-12-16T06:30:17.867Z,2.76
2022-12-16T06:31:17.434Z,2.85
2022-12-16T06:32:17.826Z,2.78
2022-12-16T06:33:16.425Z,2.79
2022-12-16T06:34:17.044Z,2.79
2022-12-16T06:35:16.775Z,2.71
2022-12-16T06:36:17.825Z,2.70
2022-12-16T06:37:16.778Z,2.82
2022-12-16T06:38:16.685Z,2.94
2022-12-16T06:39:16.835Z,2.83
2022-12-16T06:40:16.694Z,2.86
2022-12-16T06:41:16.905Z,2.88
2022-12-16T06:42:16.774Z,2.78
2022-12-16T06:43:16.855Z,2.76
2022-12-16T06:44:17.390Z,2.68
2022-12-16T06:45:16.707Z,2.63
2022-12-16T06:46:16.730Z,2.63
2022-12-16T06:47:16.666Z,2.64
2022-12-16T06:48:16.628Z,2.71
2022-12-16T06:49:16.635Z,2.79
2022-12-16T06:50:16.645Z,2.86
2022-12-16T06:51:16.697Z,2.89
2022-12-16T06:52:16.594Z,2.92
2022-12-16T06:53:16.527Z,2.86
2022-12-16T06:54:16.644Z,2.79
2022-12-16T06:55:16.586Z,2.65
2022-12-16T06:56:17.224Z,2.63
2022-12-16T06:57:17.216Z,2.74
2022-12-16T06:58:16.605Z,2.71
2022-12-16T06:59:16.524Z,2.76
2022-12-16T07:00:16.563Z,2.79
2022-12-16T07:01:16.483Z,2.73
2022-12-16T07:02:16.696Z,2.74
2022-12-16T07:03:16.489Z,2.55
2022-12-16T07:04:15.735Z,2.63
2022-12-16T07:05:16.415Z,2.74
2022-12-16T07:06:16.654Z,2.67
2022-12-16T07:07:16.577Z,2.65
2022-12-16T07:08:17.137Z,2.82
2022-12-16T07:09:16.453Z,2.92
2022-12-16T07:10:15.688Z,2.94
2022-12-16T07:11:17.490Z,2.94
2022-12-16T07:12:16.503Z,2.97
2022-12-16T07:13:16.435Z,2.94
2022-12-16T07:14:16.273Z,2.96
2022-12-16T07:15:16.468Z,2.99
2022-12-16T07:16:16.300Z,2.99
2022-12-16T07:17:17.505Z,2.91
2022-12-16T07:18:17.464Z,2.89
2022-12-16T07:19:16.394Z,2.88
2022-12-16T07:20:16.335Z,2.92
2022-12-16T07:21:16.367Z,2.94
2022-12-16T07:22:16.567Z,2.92
2022-12-16T07:23:19.760Z,2.92
2022-12-16T07:24:16.445Z,2.96
2022-12-16T07:25:16.198Z,2.89
2022-12-16T07:26:16.324Z,2.78
2022-12-16T07:27:16.084Z,2.64
2022-12-16T07:28:16.258Z,2.64
2022-12-16T07:29:16.207Z,2.63
2022-12-16T07:30:16.305Z,2.78
2022-12-16T07:31:16.310Z,2.88
2022-12-16T07:32:16.235Z,2.83
2022-12-16T07:33:17.124Z,2.88
2022-12-16T07:34:16.277Z,3.04
2022-12-16T07:35:16.233Z,3.07
2022-12-16T07:36:16.835Z,3.19
2022-12-16T07:37:16.175Z,3.19
2022-12-16T07:38:16.196Z,3.18
2022-12-16T07:39:16.094Z,3.24
2022-12-16T07:40:15.937Z,3.32
2022-12-16T07:41:16.115Z,3.29
2022-12-16T07:42:15.944Z,3.27
2022-12-16T07:43:16.235Z,3.19
2022-12-16T07:44:15.944Z,3.19
2022-12-16T07:45:16.056Z,3.25
2022-12-16T07:46:16.095Z,3.36
2022-12-16T07:47:16.173Z,3.54
2022-12-16T07:48:15.915Z,3.59
2022-12-16T07:49:16.124Z,3.56
2022-12-16T07:50:15.910Z,3.59
2022-12-16T07:51:16.156Z,3.62
2022-12-16T07:52:15.944Z,3.56
2022-12-16T07:53:16.026Z,3.43
2022-12-16T07:54:15.916Z,3.27
2022-12-16T07:55:15.864Z,3.12
2022-12-16T07:56:16.981Z,2.92
2022-12-16T07:57:15.764Z,2.94
2022-12-16T07:58:15.140Z,2.76
2022-12-16T07:59:15.932Z,2.70
2022-12-16T08:00:15.965Z,2.70
2022-12-16T08:01:15.904Z,2.63
2022-12-16T08:02:15.338Z,2.64
2022-12-16T08:03:16.008Z,2.60
2022-12-16T08:04:16.045Z,2.78
2022-12-16T08:05:15.837Z,2.86
2022-12-16T08:06:15.227Z,2.73
2022-12-16T08:07:16.473Z,2.79
2022-12-16T08:08:15.976Z,2.79
2022-12-16T08:09:15.848Z,2.85
2022-12-16T08:10:16.074Z,2.96
2022-12-16T08:11:15.976Z,2.82
2022-12-16T08:12:15.725Z,2.67
2022-12-16T08:13:20.751Z,2.68
2022-12-16T08:14:15.594Z,2.76
2022-12-16T08:15:15.825Z,2.57
2022-12-16T08:16:16.378Z,2.67
2022-12-16T08:17:16.087Z,2.82
2022-12-16T08:18:15.646Z,2.83
2022-12-16T08:19:15.866Z,2.79
2022-12-16T08:20:15.715Z,2.96
2022-12-16T08:21:15.894Z,3.12
2022-12-16T08:22:14.885Z,3.19
2022-12-16T08:23:15.687Z,3.28
2022-12-16T08:24:15.735Z,3.35
2022-12-16T08:25:15.915Z,3.41
2022-12-16T08:26:15.786Z,3.52
2022-12-16T08:27:15.874Z,3.73
2022-12-16T08:28:16.295Z,3.82
2022-12-16T08:29:42.692Z,3.76
2022-12-16T08:30:15.625Z,3.76
2022-12-16T08:31:16.659Z,3.90
2022-12-16T08:32:15.835Z,4.04
2022-12-16T08:33:19.571Z,4.09
2022-12-16T08:34:16.205Z,4.01
2022-12-16T08:35:14.847Z,4.04
2022-12-16T08:36:15.674Z,4.08
2022-12-16T08:37:15.576Z,4.19
2022-12-16T08:38:14.824Z,4.28
2022-12-16T08:39:15.676Z,4.30
2022-12-16T08:40:34.711Z,4.35
2022-12-16T08:41:15.477Z,4.41
2022-12-16T08:42:15.777Z,4.37
2022-12-16T08:43:15.506Z,4.41
2022-12-16T08:44:16.615Z,4.41
2022-12-16T08:45:15.466Z,4.22
2022-12-16T08:46:15.410Z,4.08
2022-12-16T08:47:15.515Z,3.92
2022-12-16T08:48:16.335Z,3.91
2022-12-16T08:50:16.293Z,3.70
2022-12-16T08:51:15.541Z,3.73
2022-12-16T08:52:15.455Z,3.70
2022-12-16T08:53:15.499Z,3.76
2022-12-16T08:54:15.395Z,3.77
2022-12-16T08:55:16.024Z,3.82
2022-12-16T08:56:15.485Z,3.80
2022-12-16T08:57:15.545Z,3.82
2022-12-16T08:58:14.690Z,3.74
2022-12-16T08:59:15.186Z,3.74
2022-12-16T09:00:15.266Z,3.68
2022-12-16T09:01:15.287Z,3.73
2022-12-16T09:02:15.703Z,3.70
2022-12-16T09:03:15.635Z,3.80
2022-12-16T09:04:15.419Z,3.97
2022-12-16T09:05:15.155Z,3.91
2022-12-16T09:06:15.335Z,3.76
2022-12-16T09:07:15.734Z,3.76
2022-12-16T09:08:15.397Z,3.52
2022-12-16T09:09:15.146Z,3.41
2022-12-16T09:10:15.868Z,3.24
2022-12-16T09:11:15.193Z,3.21
2022-12-16T09:12:15.406Z,3.21
2022-12-16T09:13:15.918Z,3.25
2022-12-16T09:14:16.265Z,3.28
2022-12-16T09:15:15.175Z,3.28
2022-12-16T09:16:19.245Z,3.28
2022-12-16T09:17:15.256Z,3.18
2022-12-16T09:18:15.971Z,3.24
2022-12-16T09:19:15.187Z,3.29
2022-12-16T09:20:15.195Z,3.32
2022-12-16T09:21:15.175Z,3.46
2022-12-16T09:22:15.346Z,3.54
2022-12-16T09:23:15.309Z,3.58
2022-12-16T09:24:15.856Z,3.58
2022-12-16T09:25:15.160Z,3.65
2022-12-16T09:26:16.690Z,3.76
2022-12-16T09:27:15.155Z,3.90
2022-12-16T09:28:14.250Z,3.97
2022-12-16T09:29:15.167Z,4.05
2022-12-16T09:30:15.624Z,4.12
2022-12-16T09:31:15.110Z,4.19
2022-12-16T09:32:15.555Z,4.30
2022-12-16T09:33:16.026Z,4.23
2022-12-16T09:34:14.222Z,4.20
2022-12-16T09:35:14.915Z,4.10
2022-12-16T09:36:15.107Z,4.27
2022-12-16T09:37:14.985Z,4.33
2022-12-16T09:38:14.978Z,4.33
2022-12-16T09:39:14.908Z,4.28
2022-12-16T09:40:15.174Z,4.34
2022-12-16T09:41:14.925Z,4.33
2022-12-16T09:42:15.136Z,4.40
2022-12-16T09:43:14.856Z,4.53
2022-12-16T09:44:15.014Z,4.67
2022-12-16T09:45:15.026Z,4.67
2022-12-16T09:46:14.177Z,4.73
2022-12-16T09:47:14.112Z,4.76
2022-12-16T09:48:14.065Z,4.89
2022-12-16T09:49:15.234Z,4.73
2022-12-16T09:50:14.719Z,4.61
2022-12-16T09:51:15.939Z,4.49
2022-12-16T09:52:18.262Z,4.52
2022-12-16T09:53:14.847Z,4.71
2022-12-16T09:54:14.005Z,4.88
2022-12-16T09:55:15.477Z,4.95
2022-12-16T09:56:14.667Z,5.01
2022-12-16T09:57:14.031Z,5.03
2022-12-16T09:58:14.724Z,5.04
2022-12-16T09:59:15.877Z,5.22
2022-12-16T10:00:15.395Z,5.26
2022-12-16T10:01:14.752Z,5.32
2022-12-16T10:02:15.846Z,5.44
2022-12-16T10:03:14.688Z,5.42
2022-12-16T10:04:14.804Z,5.36
2022-12-16T10:05:13.937Z,5.35
2022-12-16T10:06:14.695Z,5.36
2022-12-16T10:07:14.645Z,5.39
2022-12-16T10:08:18.961Z,5.47
2022-12-16T10:09:14.495Z,5.57
2022-12-16T10:10:13.836Z,5.64
2022-12-16T10:11:13.915Z,5.71
2022-12-16T10:12:14.726Z,5.69
2022-12-16T10:13:13.807Z,5.64
2022-12-16T10:14:19.320Z,5.54
2022-12-16T10:15:14.526Z,5.47
2022-12-16T10:16:14.626Z,5.43
2022-12-16T10:17:14.606Z,5.44
2022-12-16T10:18:15.270Z,5.26
2022-12-16T10:19:14.559Z,5.26
2022-12-16T10:20:15.095Z,5.39
2022-12-16T10:21:14.495Z,5.46
2022-12-16T10:22:14.334Z,5.43
2022-12-16T10:23:14.598Z,5.51
2022-12-16T10:24:13.686Z,5.51
2022-12-16T10:25:14.606Z,5.58
2022-12-16T10:26:14.722Z,5.62
2022-12-16T10:27:14.597Z,5.53
2022-12-16T10:28:13.655Z,5.42
2022-12-16T10:29:14.977Z,5.24
2022-12-16T10:30:14.426Z,5.13
2022-12-16T10:31:14.557Z,4.88
2022-12-16T10:32:15.056Z,4.70
2022-12-16T10:33:15.075Z,4.58
2022-12-16T10:34:14.325Z,4.34
2022-12-16T10:35:14.300Z,4.04
2022-12-16T10:36:14.947Z,4.05
2022-12-16T10:37:19.062Z,4.02
2022-12-16T10:38:14.995Z,4.09
2022-12-16T10:39:13.535Z,4.00
2022-12-16T10:40:14.415Z,3.91
2022-12-16T10:41:14.156Z,3.76
2022-12-16T10:42:15.385Z,3.65
2022-12-16T10:43:16.557Z,3.58
2022-12-16T10:44:14.306Z,3.58
2022-12-16T10:45:14.196Z,3.47
2022-12-16T10:46:14.321Z,3.44
2022-12-16T10:47:14.246Z,3.28
2022-12-16T10:48:13.527Z,3.22
2022-12-16T10:49:15.012Z,3.28
2022-12-16T10:50:14.144Z,3.29
2022-12-16T10:51:14.268Z,3.18
2022-12-16T10:52:14.015Z,3.12
2022-12-16T10:53:13.396Z,3.12
2022-12-16T10:54:14.085Z,3.18
2022-12-16T10:55:14.226Z,3.22
2022-12-16T10:56:14.009Z,3.17
2022-12-16T10:57:14.386Z,3.07
2022-12-16T10:58:14.055Z,3.06
2022-12-16T10:59:14.205Z,2.97
2022-12-16T11:00:14.098Z,2.91
2022-12-16T11:01:14.803Z,2.88
2022-12-16T11:02:13.400Z,2.92
2022-12-16T11:03:14.360Z,2.94
2022-12-16T11:04:14.407Z,2.96
2022-12-16T11:05:13.947Z,3.00
2022-12-16T11:06:13.919Z,2.99
2022-12-16T11:07:14.395Z,2.97
2022-12-16T11:08:14.705Z,2.97
2022-12-16T11:09:14.747Z,3.04
2022-12-16T11:10:18.512Z,3.09
2022-12-16T11:11:14.325Z,3.03
2022-12-16T11:12:15.215Z,3.04
2022-12-16T11:13:14.894Z,3.07
2022-12-16T11:14:13.206Z,3.22
2022-12-16T11:15:30.182Z,3.27
2022-12-16T11:16:14.744Z,3.27
2022-12-16T11:17:14.963Z,3.37
2022-12-16T11:18:13.155Z,3.41
2022-12-16T11:19:13.154Z,3.48
2022-12-16T11:20:13.952Z,3.58
2022-12-16T11:21:17.093Z,3.58
2022-12-16T11:22:13.105Z,3.70
2022-12-16T11:23:14.497Z,3.77
2022-12-16T11:24:13.254Z,3.82
2022-12-16T11:25:13.085Z,3.90
2022-12-16T11:26:14.035Z,4.01
2022-12-16T11:27:13.925Z,4.04
2022-12-16T11:28:13.724Z,4.10
2022-12-16T11:29:13.875Z,4.13
2022-12-16T11:30:14.760Z,4.19
2022-12-16T11:31:14.201Z,4.18
2022-12-16T11:32:14.516Z,4.16
2022-12-16T11:33:13.988Z,4.18
2022-12-16T11:34:13.364Z,4.22
2022-12-16T11:35:14.035Z,4.18
2022-12-16T11:36:13.667Z,4.18
2022-12-16T11:37:18.108Z,4.10
2022-12-16T11:38:13.876Z,4.01
2022-12-16T11:39:14.026Z,3.80
2022-12-16T11:40:12.895Z,3.68
2022-12-16T11:41:14.619Z,3.76
2022-12-16T11:42:13.781Z,3.80
2022-12-16T11:43:16.966Z,3.74
2022-12-16T11:44:13.929Z,3.73
2022-12-16T11:45:14.320Z,3.72
2022-12-16T11:46:13.884Z,3.76
2022-12-16T11:47:13.790Z,3.86
2022-12-16T11:48:12.820Z,4.00
2022-12-16T11:49:15.019Z,4.02
2022-12-16T11:50:14.549Z,4.04
2022-12-16T11:51:12.798Z,4.10
2022-12-16T11:52:35.410Z,4.20
2022-12-16T11:53:12.777Z,4.28
2022-12-16T11:54:13.435Z,4.23
2022-12-16T11:55:12.801Z,3.95
2022-12-16T11:56:16.225Z,3.92
2022-12-16T11:57:13.739Z,3.88
2022-12-16T11:58:12.718Z,3.77
2022-12-16T11:59:13.660Z,3.52
2022-12-16T12:00:12.720Z,3.47
2022-12-16T12:01:14.079Z,3.58
2022-12-16T12:02:13.999Z,3.62
2022-12-16T12:03:14.777Z,3.54
2022-12-16T12:04:14.216Z,3.40
2022-12-16T12:05:13.541Z,3.61
2022-12-16T12:06:14.178Z,3.64
2022-12-16T12:07:13.948Z,3.80
2022-12-16T12:08:12.620Z,4.04
2022-12-16T12:09:14.113Z,3.97
2022-12-16T12:10:14.112Z,3.86
2022-12-16T12:11:13.879Z,3.73
2022-12-16T12:12:13.368Z,3.86
2022-12-16T12:13:12.578Z,4.08
2022-12-16T12:14:13.513Z,4.22
2022-12-16T12:15:13.328Z,4.12
2022-12-16T12:16:13.552Z,4.00
2022-12-16T12:17:13.399Z,3.95
2022-12-16T12:18:12.551Z,3.86
2022-12-16T12:19:13.190Z,3.56
2022-12-16T12:20:13.387Z,3.51
2022-12-16T12:21:13.188Z,3.41
2022-12-16T12:22:13.368Z,3.40
2022-12-16T12:23:13.390Z,3.52
2022-12-16T12:24:12.440Z,3.55
2022-12-16T12:25:13.188Z,3.64
2022-12-16T12:26:12.480Z,3.91
2022-12-16T12:27:13.188Z,4.04
2022-12-16T12:28:14.019Z,3.98
2022-12-16T12:29:13.338Z,4.10
2022-12-16T12:30:16.468Z,4.12
2022-12-16T12:31:14.437Z,4.18
2022-12-16T12:32:13.880Z,4.34
2022-12-16T12:33:13.379Z,4.45
2022-12-16T12:34:12.338Z,4.49
2022-12-16T12:35:13.178Z,4.59
2022-12-16T12:36:14.139Z,4.71
2022-12-16T12:37:13.167Z,4.77
2022-12-16T12:38:14.309Z,4.70
2022-12-16T12:39:13.098Z,4.69
2022-12-16T12:40:12.999Z,4.64
2022-12-16T12:41:12.958Z,4.71
2022-12-16T12:42:13.130Z,4.79
2022-12-16T12:43:13.464Z,4.89
2022-12-16T12:44:13.178Z,4.98
2022-12-16T12:45:12.909Z,4.92
2022-12-16T12:46:13.254Z,4.71
2022-12-16T12:47:13.929Z,4.74
2022-12-16T12:48:13.803Z,4.71
2022-12-16T12:49:13.648Z,4.66
2022-12-16T12:50:13.800Z,4.73
2022-12-16T12:51:13.247Z,4.59
2022-12-16T12:52:14.060Z,4.55
2022-12-16T12:53:13.219Z,4.69
2022-12-16T12:54:12.158Z,4.79
2022-12-16T12:55:12.850Z,4.90
2022-12-16T12:56:13.310Z,4.90
2022-12-16T12:57:13.878Z,5.07
2022-12-16T12:58:12.741Z,5.11
2022-12-16T12:59:13.578Z,5.11
2022-12-16T13:00:12.746Z,4.96
2022-12-16T13:01:12.201Z,4.90
2022-12-16T13:02:12.201Z,4.98
2022-12-16T13:03:13.268Z,4.92
2022-12-16T13:04:12.729Z,4.95
2022-12-16T13:05:12.459Z,4.92
2022-12-16T13:06:12.649Z,4.77
2022-12-16T13:07:12.845Z,4.71
2022-12-16T13:08:13.299Z,4.77
2022-12-16T13:09:12.829Z,4.85
2022-12-16T13:10:12.542Z,4.80
2022-12-16T13:11:13.518Z,4.71
2022-12-16T13:12:13.158Z,4.80
2022-12-16T13:13:12.039Z,4.73
2022-12-16T13:14:13.557Z,4.67
2022-12-16T13:15:12.411Z,4.67
2022-12-16T13:16:12.034Z,4.76
2022-12-16T13:17:12.669Z,4.41
2022-12-16T13:18:12.919Z,4.35
2022-12-16T13:19:14.200Z,4.38